Terminal Aerodrome Forecast
Issued by NWS

Home | Current Version | Previous Version | Text Only | Print | Product List | Glossary On
Versions: 1 2 3 4 5 6 7 8 9 10 11 12 13 14 15 16 17 18 19 20 21 22 23 24 25 26 27 28 29 30 31 32 33 34 35 36
000
FTUS45 KPSR 221130
TAFSDL
TAF
KSDL 221130Z 2212/2312 VRB04KT P6SM BKN200
     FM221600 17008KT P6SM FEW060 BKN200
     FM221900 22012G20KT P6SM FEW070 SCT200
     FM230300 25005KT P6SM FEW070 SCT200
     FM230500 VRB03KT P6SM SKC
      AMD LTD TO CLD VIS AND WIND TIL 221300=

USA.gov is the U.S. government's official web portal to all federal, state and local government web resources and services.